Fleet, Virginia
Current Conditions -  °F | °C
As of 3:59 PM on Saturday 22 Nov 2014 (Local Time) from KNGU Reporting Station
Broken Clouds Broken Clouds  
Wind Chill: 53°   Ceiling: 26000
Heat Index: 53°   Visibility: 10mi
Dew Point: 18°   Wind: 8mph
Humidity: 25%   Direction: 220°SW
Pressure: 30.41"   Gusts: NA
Location:  36.9343°N, 76.284°W
Report Text: KNGU 222059Z 22007KT 10SM SCT210 BKN260 12/M08 A3041 RMK AO2 SLP299 T01171078 56021
Loading
Personal Weather Stations






























Interactive Weather Map New forecast layout! Learn more

10-Day Weather Forecast

Advertisements
Track Severe Weather on mobile